Time;durP1;ratioP1;P1;durP2;ratioP2;P2;SDS_P1;SDS_P2;PMS_P1;PMS_P2;Temp;Humidity;BMP_temperature;BMP_pressure;BME280_temperature;BME280_humidity;BME280_pressure;Samples;Min_cycle;Max_cycle;Signal;HPM_P1;HPM_P2
2024/01/20 00:01:56;;;;;;;10.73;4.63;;;;;;;-5.76;63.49;101074.69;10515702;28;20096;-64
2024/01/20 00:06:59;;;;;;;9.40;4.13;;;;;;;-5.73;63.59;101073.91;10524107;28;20044;-66
2024/01/20 00:12:02;;;;;;;8.60;3.40;;;;;;;-5.78;62.96;101078.00;10522237;28;20044;-64
2024/01/20 00:17:04;;;;;;;10.43;4.05;;;;;;;-5.89;63.25;101090.47;10520438;28;20051;-65
2024/01/20 00:22:21;;;;;;;9.75;3.80;;;;;;;-5.93;63.12;101092.94;10518668;28;20106;-65
2024/01/20 00:27:25;;;;;;;8.55;3.75;;;;;;;-6.06;62.47;101089.22;10508436;28;20126;-66
2024/01/20 00:32:27;;;;;;;10.50;4.55;;;;;;;-6.37;62.66;101100.28;10539165;27;20071;-66
2024/01/20 00:37:29;;;;;;;10.65;4.55;;;;;;;-6.39;62.89;101093.41;10516354;28;20059;-65
2024/01/20 00:42:32;;;;;;;8.82;3.88;;;;;;;-6.35;62.93;101118.13;10483786;28;20052;-65
2024/01/20 00:47:35;;;;;;;7.97;3.67;;;;;;;-6.62;62.87;101110.59;10523027;28;20056;-66
2024/01/20 00:52:40;;;;;;;15.38;4.45;;;;;;;-6.69;64.00;101112.94;10502876;28;20032;-65
2024/01/20 00:57:42;;;;;;;9.93;4.35;;;;;;;-6.83;63.21;101121.84;10522563;28;20414;-65
2024/01/20 01:02:45;;;;;;;11.55;4.57;;;;;;;-6.96;63.01;101123.19;10515524;28;20056;-65
2024/01/20 01:07:47;;;;;;;7.82;4.13;;;;;;;-6.96;62.85;101117.22;10521623;28;20043;-65
2024/01/20 01:12:49;;;;;;;8.40;5.03;;;;;;;-6.96;62.88;101122.31;10519238;28;20454;-65
2024/01/20 01:17:51;;;;;;;13.45;4.05;;;;;;;-6.98;62.85;101124.81;10499150;28;20131;-65
2024/01/20 01:22:53;;;;;;;7.85;3.83;;;;;;;-7.15;62.58;101126.84;10504039;28;20058;-65
2024/01/20 01:27:55;;;;;;;11.65;4.72;;;;;;;-7.23;62.36;101135.91;10518168;28;20047;-65
2024/01/20 01:32:57;;;;;;;10.52;4.38;;;;;;;-7.27;62.66;101136.63;10516856;28;20420;-64
2024/01/20 01:37:59;;;;;;;10.88;4.65;;;;;;;-7.28;62.68;101147.63;10528470;28;20060;-65
2024/01/20 01:43:01;;;;;;;13.95;3.90;;;;;;;-7.44;63.02;101158.13;10527676;28;20388;-66
2024/01/20 01:48:03;;;;;;;13.25;4.70;;;;;;;-7.58;62.68;101149.22;10507233;28;20135;-65
2024/01/20 01:53:05;;;;;;;7.00;3.78;;;;;;;-7.51;62.98;101145.16;10528688;28;20150;-65
2024/01/20 01:58:07;;;;;;;9.85;4.50;;;;;;;-7.35;62.88;101152.47;10523081;28;20167;-66
2024/01/20 02:03:09;;;;;;;10.15;3.95;;;;;;;-7.39;62.27;101163.34;10510844;28;20508;-66
2024/01/20 02:08:12;;;;;;;10.73;4.80;;;;;;;-7.69;62.23;101175.06;10524748;28;20067;-65
2024/01/20 02:13:14;;;;;;;9.65;5.38;;;;;;;-7.64;62.29;101164.22;10522866;28;20400;-66
2024/01/20 02:18:17;;;;;;;6.78;3.80;;;;;;;-7.49;62.01;101184.19;10523965;28;20093;-65
2024/01/20 02:23:19;;;;;;;10.55;4.82;;;;;;;-7.46;62.37;101179.22;10522873;28;20299;-65
2024/01/20 02:28:21;;;;;;;10.48;5.32;;;;;;;-7.32;62.94;101194.09;10506630;28;20047;-66
2024/01/20 02:33:23;;;;;;;16.58;7.20;;;;;;;-7.14;62.59;101199.75;10507304;28;20039;-66
2024/01/20 02:38:25;;;;;;;9.60;4.80;;;;;;;-6.94;61.87;101194.41;10505357;28;20140;-66
2024/01/20 02:43:27;;;;;;;12.10;5.40;;;;;;;-6.85;61.75;101187.06;10526157;28;20231;-64
2024/01/20 02:48:30;;;;;;;10.15;4.70;;;;;;;-7.05;60.94;101192.41;10523773;28;20056;-65
2024/01/20 02:53:32;;;;;;;9.57;5.18;;;;;;;-7.11;61.73;101194.75;10529185;28;20031;-66
2024/01/20 02:58:34;;;;;;;10.43;5.05;;;;;;;-6.97;61.76;101192.66;10524659;28;20032;-65
2024/01/20 03:03:36;;;;;;;13.15;5.03;;;;;;;-6.94;61.79;101185.09;10521626;28;20059;-66
2024/01/20 03:08:38;;;;;;;7.38;3.97;;;;;;;-6.79;61.81;101203.38;10535737;28;20632;-65
2024/01/20 03:13:40;;;;;;;10.35;5.07;;;;;;;-6.58;61.93;101208.25;10521544;28;20044;-65
2024/01/20 03:18:42;;;;;;;11.75;6.65;;;;;;;-6.63;61.42;101214.88;10521323;28;20046;-65
2024/01/20 03:23:45;;;;;;;10.02;4.80;;;;;;;-6.50;61.63;101214.41;10494811;28;20043;-66
2024/01/20 03:28:48;;;;;;;10.43;4.70;;;;;;;-6.43;61.53;101219.72;10504724;28;20189;-68
2024/01/20 03:33:50;;;;;;;12.27;5.07;;;;;;;-6.29;61.18;101215.88;10526496;28;20044;-65
2024/01/20 03:38:52;;;;;;;9.52;4.22;;;;;;;-6.21;61.39;101223.72;10506111;28;20052;-65
2024/01/20 03:43:55;;;;;;;12.80;5.68;;;;;;;-6.13;61.04;101218.88;10525309;28;20327;-65
2024/01/20 03:48:57;;;;;;;13.15;5.07;;;;;;;-6.24;60.86;101231.28;10521753;28;20044;-65
2024/01/20 03:54:01;;;;;;;10.38;5.47;;;;;;;-6.22;60.83;101224.56;10506836;28;20051;-65
2024/01/20 03:59:03;;;;;;;12.20;5.10;;;;;;;-6.22;60.83;101234.75;10505293;28;20024;-66
2024/01/20 04:04:05;;;;;;;11.43;4.93;;;;;;;-6.40;60.55;101229.97;10502224;28;20096;-67
2024/01/20 04:09:07;;;;;;;12.02;5.95;;;;;;;-6.70;60.76;101230.78;10505688;28;20047;-65
2024/01/20 04:14:09;;;;;;;11.85;4.93;;;;;;;-6.46;61.44;101228.97;10518399;28;20047;-66
2024/01/20 04:19:12;;;;;;;8.93;4.13;;;;;;;-6.43;60.64;101226.47;10519635;28;20127;-65
2024/01/20 04:24:14;;;;;;;11.13;4.90;;;;;;;-6.48;60.75;101230.59;10531603;28;20051;-67
2024/01/20 04:29:16;;;;;;;15.57;5.10;;;;;;;-6.41;60.66;101243.53;10503153;28;20070;-66
2024/01/20 04:34:18;;;;;;;9.07;4.97;;;;;;;-6.58;60.07;101254.03;10520714;28;20419;-67
2024/01/20 04:39:20;;;;;;;10.38;4.53;;;;;;;-6.82;60.85;101251.59;10484720;28;20078;-68
2024/01/20 04:44:22;;;;;;;9.88;3.90;;;;;;;-6.72;60.50;101256.16;10519118;28;20760;-68
2024/01/20 04:49:24;;;;;;;11.10;5.15;;;;;;;-6.59;60.93;101265.03;10517145;28;20040;-66
2024/01/20 04:54:26;;;;;;;12.70;4.57;;;;;;;-6.55;60.12;101264.28;10518114;28;20047;-66
2024/01/20 04:59:28;;;;;;;10.77;4.63;;;;;;;-6.49;60.78;101267.91;10512045;28;20519;-66
2024/01/20 05:04:30;;;;;;;12.85;5.00;;;;;;;-6.59;60.41;101270.97;10487876;28;20693;-66
2024/01/20 05:09:32;;;;;;;10.25;4.20;;;;;;;-6.53;60.72;101277.94;10517608;28;20048;-66
2024/01/20 05:14:35;;;;;;;11.27;4.43;;;;;;;-6.43;60.59;101279.94;10518287;28;20039;-66
2024/01/20 05:19:38;;;;;;;9.20;4.10;;;;;;;-6.40;60.49;101285.97;10518535;28;20394;-66
2024/01/20 05:24:41;;;;;;;10.73;4.45;;;;;;;-6.29;60.69;101288.84;10518067;28;20138;-66
2024/01/20 05:29:43;;;;;;;8.00;4.15;;;;;;;-6.20;60.59;101291.66;10517752;28;20044;-66
2024/01/20 05:34:46;;;;;;;7.43;4.18;;;;;;;-6.07;60.76;101286.09;10526935;28;20055;-67
2024/01/20 05:39:48;;;;;;;8.60;3.90;;;;;;;-6.16;60.24;101290.06;10501698;28;20060;-66
2024/01/20 05:44:50;;;;;;;8.40;4.10;;;;;;;-6.27;60.51;101310.97;10507425;28;20048;-64
2024/01/20 05:49:52;;;;;;;7.50;4.22;;;;;;;-6.10;60.88;101315.69;10516996;28;20140;-66
2024/01/20 05:54:54;;;;;;;9.55;5.55;;;;;;;-6.17;60.63;101301.91;10504997;28;20464;-66
2024/01/20 05:59:56;;;;;;;9.57;4.68;;;;;;;-6.16;60.51;101305.34;10513563;28;20056;-66
2024/01/20 06:04:58;;;;;;;12.20;5.32;;;;;;;-6.13;60.36;101313.06;10499417;28;20048;-65
2024/01/20 06:10:00;;;;;;;9.98;3.92;;;;;;;-6.16;60.49;101324.03;10503133;28;20055;-65
2024/01/20 06:15:03;;;;;;;8.70;4.35;;;;;;;-6.36;60.79;101341.22;10502794;28;20067;-66
2024/01/20 06:20:06;;;;;;;11.13;5.20;;;;;;;-6.37;61.09;101357.34;10509324;28;20044;-64
2024/01/20 06:25:08;;;;;;;15.02;5.28;;;;;;;-6.38;60.69;101350.50;10544171;27;20115;-65
2024/01/20 06:30:11;;;;;;;7.82;4.10;;;;;;;-6.15;60.88;101348.66;10533158;28;20044;-66
2024/01/20 06:35:13;;;;;;;8.57;4.53;;;;;;;-6.19;60.13;101358.72;10504757;28;20477;-66
2024/01/20 06:40:16;;;;;;;10.25;4.22;;;;;;;-6.31;60.30;101362.63;10524762;28;20044;-66
2024/01/20 06:45:18;;;;;;;14.18;5.03;;;;;;;-6.10;60.60;101356.44;10489710;28;20903;-65
2024/01/20 06:50:20;;;;;;;12.27;5.03;;;;;;;-6.16;60.04;101363.91;10503537;28;20044;-66
2024/01/20 06:55:22;;;;;;;7.22;3.55;;;;;;;-6.32;60.20;101370.22;10506213;28;20109;-65
2024/01/20 07:00:24;;;;;;;11.80;5.18;;;;;;;-6.49;60.26;101371.34;10524276;28;20638;-66
2024/01/20 07:05:26;;;;;;;9.68;4.72;;;;;;;-6.50;60.72;101370.47;10519085;28;20500;-66
2024/01/20 07:10:29;;;;;;;10.13;4.70;;;;;;;-6.45;60.43;101384.22;10526900;28;20163;-66
2024/01/20 07:15:31;;;;;;;10.82;4.32;;;;;;;-6.41;60.58;101380.97;10518961;28;20402;-66
2024/01/20 07:20:33;;;;;;;10.23;4.70;;;;;;;-6.35;60.56;101385.38;10513564;28;20554;-66
2024/01/20 07:25:36;;;;;;;10.70;4.78;;;;;;;-6.30;60.51;101388.94;10502039;28;20071;-66
2024/01/20 07:30:38;;;;;;;9.52;4.90;;;;;;;-6.17;60.71;101391.03;10524834;28;20096;-67
2024/01/20 07:35:40;;;;;;;8.00;3.78;;;;;;;-6.08;60.68;101406.59;10504200;28;20069;-66
2024/01/20 07:40:42;;;;;;;11.23;4.70;;;;;;;-5.91;61.00;101423.22;10521538;28;20036;-66
2024/01/20 07:45:44;;;;;;;9.45;4.93;;;;;;;-5.81;59.98;101424.41;10502260;28;20032;-65
2024/01/20 07:50:46;;;;;;;10.35;4.22;;;;;;;-6.26;60.12;101432.38;10519414;28;20040;-66
2024/01/20 07:55:48;;;;;;;10.30;4.60;;;;;;;-6.07;60.33;101441.41;10517480;27;20044;-66
2024/01/20 08:00:50;;;;;;;11.15;4.65;;;;;;;-6.14;60.12;101442.06;10518186;28;20048;-66
2024/01/20 08:05:53;;;;;;;7.10;3.42;;;;;;;-6.17;59.93;101444.50;10485369;28;20054;-65
2024/01/20 08:10:55;;;;;;;9.48;4.43;;;;;;;-6.24;60.08;101446.00;10489549;28;20374;-65
2024/01/20 08:15:57;;;;;;;9.65;4.53;;;;;;;-5.97;60.32;101457.88;10518643;28;20192;-65
2024/01/20 08:21:04;;;;;;;13.15;4.43;;;;;;;-5.66;60.55;101461.38;10514331;28;20044;-66
2024/01/20 08:26:06;;;;;;;13.85;4.03;;;;;;;-5.81;59.75;101467.72;10504232;28;20059;-67
2024/01/20 08:31:08;;;;;;;12.07;4.15;;;;;;;-5.97;60.05;101463.81;10500974;28;20076;-66
2024/01/20 08:36:10;;;;;;;9.68;4.30;;;;;;;-6.08;60.96;101472.81;10507114;28;20640;-66
2024/01/20 08:41:13;;;;;;;7.95;3.45;;;;;;;-5.82;61.10;101477.03;10522490;28;20560;-66
2024/01/20 08:46:15;;;;;;;10.32;3.85;;;;;;;-5.70;60.48;101474.84;10526474;28;20406;-65
2024/01/20 08:51:17;;;;;;;16.63;4.97;;;;;;;-5.52;61.10;101477.06;10519503;28;20042;-66
2024/01/20 08:56:19;;;;;;;13.43;4.88;;;;;;;-5.42;60.66;101471.44;10499852;28;20054;-67
2024/01/20 09:01:21;;;;;;;14.20;3.83;;;;;;;-5.02;60.73;101469.19;10517997;28;20048;-66
2024/01/20 09:06:23;;;;;;;10.80;5.07;;;;;;;-4.88;59.94;101472.97;10496971;28;20052;-66
2024/01/20 09:11:25;;;;;;;10.98;5.03;;;;;;;-4.80;60.35;101478.28;10497530;28;20565;-66
2024/01/20 09:16:27;;;;;;;9.05;4.43;;;;;;;-4.60;59.86;101472.88;10518815;28;20039;-66
2024/01/20 09:21:29;;;;;;;12.18;3.97;;;;;;;-4.47;59.83;101468.06;10517129;28;20047;-66
2024/01/20 09:26:31;;;;;;;11.48;4.60;;;;;;;-4.49;59.20;101478.25;10516486;28;20279;-64
2024/01/20 09:31:35;;;;;;;12.02;4.35;;;;;;;-4.62;59.83;101496.63;10514448;28;20040;-65
2024/01/20 09:36:37;;;;;;;14.15;4.82;;;;;;;-4.71;59.29;101491.28;10517706;28;20071;-65
2024/01/20 09:41:40;;;;;;;12.27;4.10;;;;;;;-4.52;59.32;101499.47;10513782;28;20940;-65
2024/01/20 09:46:43;;;;;;;14.65;5.22;;;;;;;-4.45;59.34;101492.81;10497500;28;20052;-65
2024/01/20 09:51:50;;;;;;;12.18;3.95;;;;;;;-3.92;59.12;101492.44;10513941;28;20522;-65
2024/01/20 09:56:52;;;;;;;11.93;4.90;;;;;;;-3.87;58.67;101498.50;10506441;28;20093;-64
2024/01/20 10:01:55;;;;;;;10.77;4.28;;;;;;;-3.94;59.32;101493.22;10521906;28;20048;-65
2024/01/20 10:06:57;;;;;;;9.65;3.47;;;;;;;-3.79;58.39;101501.22;10520659;28;20080;-65
2024/01/20 10:11:59;;;;;;;15.57;5.20;;;;;;;-4.01;58.89;101507.56;10522027;27;20064;-66
2024/01/20 10:17:01;;;;;;;10.48;4.35;;;;;;;-3.86;58.24;101500.25;10521474;28;20489;-66
2024/01/20 10:22:07;;;;;;;10.32;3.63;;;;;;;-3.86;58.84;101492.59;10521340;28;20044;-67
2024/01/20 10:27:15;;;;;;;12.57;5.10;;;;;;;-3.68;58.48;101484.47;10496863;28;20580;-68
2024/01/20 10:32:17;;;;;;;11.25;4.63;;;;;;;-3.45;58.11;101475.63;10521777;28;20048;-67
2024/01/20 10:37:26;;;;;;;11.55;6.22;;;;;;;-3.54;58.10;101465.19;10504444;28;20040;-67
2024/01/20 10:42:31;;;;;;;13.20;6.03;;;;;;;-3.57;58.18;101474.47;10518375;28;20086;-67
2024/01/20 10:47:40;;;;;;;14.98;4.97;;;;;;;-3.36;58.64;101474.91;10515855;27;20036;-68
2024/01/20 10:52:42;;;;;;;12.35;5.00;;;;;;;-2.98;58.28;101461.22;10537816;27;20114;-67
2024/01/20 10:57:48;;;;;;;9.30;4.50;;;;;;;-2.89;57.19;101459.69;10504796;28;20040;-67
2024/01/20 11:02:51;;;;;;;11.98;4.97;;;;;;;-3.12;57.53;101466.06;10500226;27;20139;-68
2024/01/20 11:07:57;;;;;;;10.18;3.97;;;;;;;-3.42;57.23;101478.22;10519756;28;20113;-68
2024/01/20 11:13:05;;;;;;;13.00;4.20;;;;;;;-3.34;57.59;101473.25;10522411;28;20052;-68
2024/01/20 11:18:17;;;;;;;10.35;4.35;;;;;;;-3.45;57.45;101474.75;10536553;27;20519;-68
2024/01/20 11:23:20;;;;;;;12.25;4.95;;;;;;;-3.45;57.66;101473.06;10516142;27;20404;-68
2024/01/20 11:28:33;;;;;;;12.23;4.93;;;;;;;-3.04;57.85;101463.66;10500947;28;20518;-67
2024/01/20 11:33:36;;;;;;;11.32;4.30;;;;;;;-2.73;56.95;101468.50;10503041;27;20143;-67
2024/01/20 11:38:39;;;;;;;14.63;5.00;;;;;;;-2.89;56.64;101472.50;10533782;28;20059;-67
2024/01/20 11:43:47;;;;;;;11.23;4.63;;;;;;;-3.29;57.50;101458.88;10496875;28;20503;-67
2024/01/20 11:48:51;;;;;;;9.07;4.68;;;;;;;-2.85;57.59;101460.59;10516308;27;20143;-67
2024/01/20 11:53:53;;;;;;;14.05;4.90;;;;;;;-2.75;56.81;101451.41;10522008;28;20046;-67
2024/01/20 11:58:55;;;;;;;14.07;4.88;;;;;;;-2.60;56.85;101444.84;10497967;27;20152;-66
2024/01/20 12:03:59;;;;;;;15.95;6.05;;;;;;;-2.38;57.17;101436.69;10519210;28;20134;-67
2024/01/20 12:09:01;;;;;;;11.93;4.88;;;;;;;-2.61;56.91;101429.47;10520172;28;20048;-67
2024/01/20 12:14:03;;;;;;;17.27;5.63;;;;;;;-2.46;57.13;101419.47;10520706;28;20047;-67
2024/01/20 12:19:05;;;;;;;14.48;5.80;;;;;;;-2.18;56.63;101419.94;10484592;28;20136;-67
2024/01/20 12:24:11;;;;;;;12.52;5.30;;;;;;;-2.28;57.04;101418.06;10499680;28;20051;-67
2024/01/20 12:29:13;;;;;;;13.45;5.18;;;;;;;-2.63;56.15;101421.75;10520671;28;21068;-68
2024/01/20 12:34:16;;;;;;;13.40;4.63;;;;;;;-2.92;57.55;101425.50;10516377;28;20127;-67
2024/01/20 12:39:19;;;;;;;12.27;4.68;;;;;;;-2.88;56.74;101419.59;10518307;28;20083;-67
2024/01/20 12:44:22;;;;;;;14.48;5.03;;;;;;;-3.10;57.22;101413.22;10520516;28;20557;-68
2024/01/20 12:49:23;;;;;;;9.07;4.88;;;;;;;-3.20;58.33;101407.91;10504322;28;20061;-67
2024/01/20 12:54:26;;;;;;;11.77;5.32;;;;;;;-2.85;57.23;101388.91;10515316;28;20051;-67
2024/01/20 12:59:28;;;;;;;14.43;4.43;;;;;;;-2.87;57.81;101391.47;10514584;28;20058;-67
2024/01/20 13:04:30;;;;;;;12.48;4.30;;;;;;;-2.54;57.05;101395.44;10499101;28;20596;-66
2024/01/20 13:09:32;;;;;;;14.32;5.30;;;;;;;-2.65;57.25;101379.88;10523209;27;20084;-67
2024/01/20 13:14:34;;;;;;;9.48;3.65;;;;;;;-2.99;57.27;101375.03;10500121;28;20686;-66
2024/01/20 13:19:36;;;;;;;15.85;6.00;;;;;;;-3.33;58.28;101385.47;10515708;28;20056;-67
2024/01/20 13:24:38;;;;;;;14.10;5.40;;;;;;;-3.29;58.81;101387.25;10496660;28;20105;-66
2024/01/20 13:29:41;;;;;;;14.10;4.80;;;;;;;-3.12;58.65;101391.00;10519333;28;20048;-66
2024/01/20 13:34:43;;;;;;;12.80;4.63;;;;;;;-3.00;58.34;101388.66;10523872;28;21022;-66
2024/01/20 13:39:45;;;;;;;15.07;4.97;;;;;;;-3.07;58.80;101391.94;10508041;28;20085;-66
2024/01/20 13:44:47;;;;;;;15.02;4.45;;;;;;;-3.25;58.52;101392.47;10512406;28;20055;-66
2024/01/20 13:49:49;;;;;;;15.32;5.68;;;;;;;-3.30;58.88;101390.63;10531275;28;20127;-67
2024/01/20 13:54:51;;;;;;;11.85;4.65;;;;;;;-3.03;59.26;101392.03;10526305;28;20048;-68
2024/01/20 13:59:57;;;;;;;12.38;6.20;;;;;;;-3.02;59.18;101398.00;10526139;27;20067;-66
2024/01/20 14:05:02;;;;;;;14.88;4.82;;;;;;;-3.25;59.17;101396.72;10503733;28;20047;-66
2024/01/20 14:10:06;;;;;;;10.88;4.95;;;;;;;-3.20;59.54;101397.69;10521776;28;20634;-66
2024/01/20 14:15:08;;;;;;;14.05;5.68;;;;;;;-3.28;59.53;101389.00;10521997;28;20037;-67
2024/01/20 14:20:10;;;;;;;17.33;6.85;;;;;;;-3.36;60.28;101404.16;10489345;28;20048;-66
2024/01/20 14:25:16;;;;;;;17.63;5.90;;;;;;;-3.48;60.31;101405.63;10504607;28;20128;-66
2024/01/20 14:30:18;;;;;;;13.18;7.03;;;;;;;-3.59;60.21;101409.66;10523284;28;20044;-65
2024/01/20 14:35:20;;;;;;;14.70;6.63;;;;;;;-3.52;60.85;101402.13;10527331;28;20051;-65
2024/01/20 14:40:22;;;;;;;13.55;5.68;;;;;;;-3.41;60.53;101403.22;10436745;28;20132;-65
2024/01/20 14:45:24;;;;;;;15.70;6.00;;;;;;;-3.51;60.35;101408.13;10441082;28;20060;-66
2024/01/20 14:50:28;;;;;;;16.80;5.63;;;;;;;-3.47;60.81;101408.22;10446160;28;20041;-66
2024/01/20 14:55:30;;;;;;;13.27;5.45;;;;;;;-3.46;60.48;101406.50;10439482;28;20118;-67
2024/01/20 15:00:32;;;;;;;16.77;6.10;;;;;;;-3.72;60.83;101413.66;10440083;28;20044;-68
2024/01/20 15:05:34;;;;;;;13.13;4.95;;;;;;;-3.78;61.09;101413.53;10438229;28;20516;-67
2024/01/20 15:10:36;;;;;;;18.58;7.10;;;;;;;-3.87;61.36;101418.41;10444228;28;20556;-67
2024/01/20 15:15:38;;;;;;;18.17;6.63;;;;;;;-3.76;61.15;101412.72;10438691;28;20758;-67
2024/01/20 15:20:41;;;;;;;17.33;6.70;;;;;;;-3.69;60.88;101412.00;10438558;28;20052;-67
2024/01/20 15:25:43;;;;;;;13.77;5.88;;;;;;;-3.92;61.08;101415.78;10438000;28;20059;-67
2024/01/20 15:30:45;;;;;;;14.23;5.93;;;;;;;-4.27;61.17;101418.34;10432386;28;20048;-67
2024/01/20 15:35:47;;;;;;;15.68;5.88;;;;;;;-4.31;61.66;101414.00;10416572;28;20048;-67
2024/01/20 15:40:49;;;;;;;22.42;7.13;;;;;;;-4.36;61.79;101418.16;10489124;28;20075;-66
2024/01/20 15:45:51;;;;;;;18.13;7.00;;;;;;;-4.34;61.99;101419.88;10500021;28;20142;-66
2024/01/20 15:50:53;;;;;;;21.27;8.10;;;;;;;-4.56;61.87;101427.84;10521689;28;20450;-66
2024/01/20 15:55:55;;;;;;;15.02;5.95;;;;;;;-4.63;62.32;101431.94;10523414;27;20497;-66
2024/01/20 16:00:58;;;;;;;23.90;7.50;;;;;;;-4.80;62.13;101428.09;10503000;28;20063;-67
2024/01/20 16:06:00;;;;;;;19.58;7.68;;;;;;;-4.91;62.14;101433.75;10519566;28;20189;-67
2024/01/20 16:11:02;;;;;;;14.73;5.55;;;;;;;-5.05;62.48;101435.06;10520384;27;20050;-66
2024/01/20 16:16:05;;;;;;;12.60;6.43;;;;;;;-5.01;62.68;101435.19;10503556;28;20047;-67
2024/01/20 16:21:07;;;;;;;13.43;5.93;;;;;;;-4.88;62.40;101433.81;10515518;28;20040;-67
2024/01/20 16:26:09;;;;;;;15.60;7.35;;;;;;;-4.85;62.01;101433.94;10515318;28;20048;-66
2024/01/20 16:31:12;;;;;;;14.15;6.43;;;;;;;-5.03;62.65;101438.50;10524465;28;20077;-67
2024/01/20 16:36:23;;;;;;;19.55;5.43;;;;;;;-4.90;62.18;101446.56;10501828;28;20295;-66
2024/01/20 16:41:25;;;;;;;16.67;7.88;;;;;;;-4.90;62.90;101436.34;10519158;28;20106;-66
2024/01/20 16:46:27;;;;;;;21.08;8.25;;;;;;;-4.94;62.57;101434.53;10518208;28;21778;-66
2024/01/20 16:51:29;;;;;;;27.55;7.95;;;;;;;-4.86;62.93;101437.28;10525518;28;20038;-66
2024/01/20 16:56:31;;;;;;;14.65;7.35;;;;;;;-4.80;62.98;101435.75;10522502;28;20051;-68
2024/01/20 17:01:33;;;;;;;23.10;9.32;;;;;;;-4.79;63.01;101436.63;10515917;28;20720;-65
2024/01/20 17:06:35;;;;;;;21.73;8.02;;;;;;;-4.86;63.12;101439.84;10514439;28;20054;-65
2024/01/20 17:11:37;;;;;;;15.55;6.63;;;;;;;-4.84;63.43;101440.75;10507147;28;20036;-67
2024/01/20 17:16:39;;;;;;;22.10;7.03;;;;;;;-4.73;63.36;101436.78;10517703;28;20075;-65
2024/01/20 17:21:41;;;;;;;24.15;7.43;;;;;;;-4.84;62.91;101439.06;10496259;28;20044;-65
2024/01/20 17:26:43;;;;;;;22.65;7.88;;;;;;;-5.09;63.25;101438.34;10521397;28;20040;-65
2024/01/20 17:31:45;;;;;;;30.27;8.73;;;;;;;-4.93;63.67;101430.31;10514884;28;20051;-66
2024/01/20 17:36:47;;;;;;;30.20;9.30;;;;;;;-4.84;63.43;101431.41;10498812;28;20048;-65
2024/01/20 17:41:51;;;;;;;29.20;9.02;;;;;;;-4.89;63.53;101432.13;10507520;28;20052;-65
2024/01/20 17:46:53;;;;;;;26.45;8.35;;;;;;;-4.68;63.73;101425.00;10495056;28;20044;-65
2024/01/20 17:51:55;;;;;;;22.30;8.10;;;;;;;-4.48;63.24;101420.41;10513842;28;20400;-66
2024/01/20 17:56:58;;;;;;;17.98;7.60;;;;;;;-4.51;63.10;101431.41;10512851;28;20038;-65
2024/01/20 18:02:00;;;;;;;28.23;10.27;;;;;;;-4.54;63.38;101446.63;10494588;28;20144;-66
2024/01/20 18:07:03;;;;;;;22.10;7.68;;;;;;;-4.62;63.08;101438.78;10513114;28;20048;-65
2024/01/20 18:12:08;;;;;;;21.15;8.73;;;;;;;-4.46;63.47;101445.13;10515858;28;20101;-65
2024/01/20 18:17:11;;;;;;;24.60;8.02;;;;;;;-4.30;63.31;101436.16;10518556;28;20143;-65
2024/01/20 18:22:13;;;;;;;25.73;8.30;;;;;;;-4.10;63.23;101440.06;10502770;28;20044;-65
2024/01/20 18:27:15;;;;;;;26.10;10.10;;;;;;;-4.08;62.73;101446.94;10520059;28;20052;-66
2024/01/20 18:32:18;;;;;;;26.58;9.60;;;;;;;-4.01;62.87;101446.22;10521407;28;20054;-65
2024/01/20 18:37:20;;;;;;;24.70;8.25;;;;;;;-4.10;62.48;101440.06;10522716;28;20047;-65
2024/01/20 18:42:24;;;;;;;37.50;8.60;;;;;;;-4.17;62.41;101443.28;10435479;28;20134;-65
2024/01/20 18:47:26;;;;;;;20.70;7.85;;;;;;;-4.28;62.96;101449.84;10436912;28;20092;-66
2024/01/20 18:52:28;;;;;;;17.50;6.53;;;;;;;-4.28;63.06;101444.72;10437425;28;20045;-65
2024/01/20 18:57:31;;;;;;;22.08;7.00;;;;;;;-4.31;63.30;101444.63;10437932;28;20274;-64
2024/01/20 19:02:33;;;;;;;22.40;7.63;;;;;;;-4.25;63.14;101445.66;10436116;28;20041;-65
2024/01/20 19:07:35;;;;;;;18.17;6.82;;;;;;;-4.15;63.27;101441.63;10436227;28;20164;-64
2024/01/20 19:12:38;;;;;;;14.00;5.57;;;;;;;-4.06;62.84;101442.72;10469731;28;20044;-64
2024/01/20 19:17:40;;;;;;;14.05;6.20;;;;;;;-4.05;63.07;101439.31;10436109;28;20044;-64
2024/01/20 19:22:42;;;;;;;18.25;6.40;;;;;;;-4.21;63.09;101444.91;10467406;28;20534;-64
2024/01/20 19:27:44;;;;;;;19.25;6.78;;;;;;;-4.28;62.69;101439.63;10435908;28;20130;-64
2024/01/20 19:32:47;;;;;;;18.30;6.95;;;;;;;-4.58;63.20;101434.59;10443481;28;20052;-63
2024/01/20 19:37:49;;;;;;;16.02;7.18;;;;;;;-4.55;63.51;101419.38;10443623;28;20408;-64
2024/01/20 19:42:51;;;;;;;17.55;7.75;;;;;;;-4.65;63.23;101415.72;10517394;28;20143;-63
2024/01/20 19:47:53;;;;;;;24.85;7.25;;;;;;;-4.74;63.69;101412.06;10502009;28;20055;-63
2024/01/20 19:52:59;;;;;;;21.00;8.65;;;;;;;-4.51;63.62;101410.97;10520827;27;20044;-63
2024/01/20 19:58:01;;;;;;;23.58;7.55;;;;;;;-4.56;62.97;101409.97;10520979;28;20657;-64
2024/01/20 20:03:03;;;;;;;18.55;7.30;;;;;;;-4.66;63.63;101401.25;10520983;28;20047;-64
2024/01/20 20:08:06;;;;;;;14.32;6.25;;;;;;;-4.63;63.42;101405.56;10520491;27;20043;-64
2024/01/20 20:13:11;;;;;;;22.00;7.55;;;;;;;-4.69;63.16;101401.16;10512010;27;20052;-64
2024/01/20 20:18:16;;;;;;;18.05;6.10;;;;;;;-4.65;63.33;101391.91;10499511;27;20062;-64
2024/01/20 20:23:18;;;;;;;22.40;8.07;;;;;;;-4.76;63.29;101394.19;10510637;28;20036;-64
2024/01/20 20:28:20;;;;;;;24.77;7.25;;;;;;;-5.09;63.64;101398.41;10522396;28;20098;-64
2024/01/20 20:33:22;;;;;;;20.40;6.20;;;;;;;-5.12;63.75;101383.03;10529077;28;20079;-64
2024/01/20 20:38:25;;;;;;;18.33;7.30;;;;;;;-5.08;63.80;101384.84;10537850;28;20039;-64
2024/01/20 20:43:28;;;;;;;19.85;8.40;;;;;;;-5.14;64.09;101387.25;10523120;28;20484;-64
2024/01/20 20:48:31;;;;;;;25.83;8.77;;;;;;;-5.07;63.90;101370.38;10529909;28;20078;-64
2024/01/20 20:53:35;;;;;;;20.02;6.90;;;;;;;-5.12;64.04;101377.06;10529041;28;20077;-64
2024/01/20 20:58:37;;;;;;;16.25;6.88;;;;;;;-5.14;63.84;101354.09;10530672;28;20114;-64
2024/01/20 21:03:41;;;;;;;14.07;5.82;;;;;;;-5.23;63.71;101358.06;10512013;28;20047;-64
2024/01/20 21:08:43;;;;;;;26.50;8.25;;;;;;;-5.28;63.89;101363.06;10509396;28;20040;-63
2024/01/20 21:13:45;;;;;;;16.27;7.95;;;;;;;-5.39;64.15;101361.91;10522199;28;20496;-64
2024/01/20 21:18:47;;;;;;;24.52;8.45;;;;;;;-5.36;64.24;101372.19;10506700;28;20067;-63
2024/01/20 21:23:51;;;;;;;33.05;8.88;;;;;;;-5.25;64.29;101370.78;10530531;28;20047;-64
2024/01/20 21:28:53;;;;;;;19.17;7.63;;;;;;;-5.05;64.11;101355.97;10524535;28;20055;-65
2024/01/20 21:33:55;;;;;;;18.00;7.38;;;;;;;-5.16;63.72;101354.88;10520855;28;21125;-64
2024/01/20 21:38:57;;;;;;;16.83;7.97;;;;;;;-5.03;63.61;101341.59;10525574;28;20079;-64
2024/01/20 21:44:01;;;;;;;29.25;9.30;;;;;;;-4.94;63.89;101332.50;10525148;28;20051;-63
2024/01/20 21:49:03;;;;;;;20.52;7.40;;;;;;;-4.90;63.26;101324.09;10512445;28;20048;-63
2024/01/20 21:54:07;;;;;;;18.98;8.07;;;;;;;-4.99;63.46;101323.84;10533763;28;20123;-64
2024/01/20 21:59:09;;;;;;;24.20;8.13;;;;;;;-4.97;63.54;101340.06;10533474;28;20050;-65
2024/01/20 22:04:13;;;;;;;17.63;6.60;;;;;;;-5.23;63.50;101332.56;10528010;28;20122;-65
2024/01/20 22:09:15;;;;;;;26.38;7.68;;;;;;;-5.16;63.63;101337.00;10513559;28;20048;-65
2024/01/20 22:14:18;;;;;;;17.90;6.30;;;;;;;-5.08;63.55;101333.84;10516246;28;20036;-65
2024/01/20 22:19:20;;;;;;;23.15;6.75;;;;;;;-5.06;63.63;101324.53;10539328;28;20032;-64
2024/01/20 22:24:22;;;;;;;25.17;7.38;;;;;;;-5.14;63.10;101320.06;10537485;28;20040;-64
2024/01/20 22:29:27;;;;;;;16.00;6.25;;;;;;;-5.30;63.35;101329.00;10536604;28;20040;-64
2024/01/20 22:34:33;;;;;;;21.30;9.10;;;;;;;-5.20;63.49;101319.91;10523552;28;20052;-64
2024/01/20 22:39:36;;;;;;;22.40;7.72;;;;;;;-5.17;63.31;101313.19;10508129;28;20055;-64
2024/01/20 22:44:38;;;;;;;21.95;8.27;;;;;;;-5.12;63.57;101310.75;10525515;28;20040;-65
2024/01/20 22:49:40;;;;;;;16.40;7.80;;;;;;;-5.07;63.04;101299.84;10537838;28;20040;-64
2024/01/20 22:54:43;;;;;;;20.33;8.00;;;;;;;-5.19;63.21;101296.13;10520975;28;20044;-65